Aérodrome :
LOGIN :

S'inscrire | Disclaimer

   EN    FR    IT 

 










Légende :    VFR   VFR Marginal   IFR   IFR Intensif   IFR Très Intensif
Visi : 
Plafond : 
>= 8 km
>= 3000ft
5 à 8 km
1000 à 3000 ft
1500m à 5 km
500 à 1000 ft
800 à 1500m
200 à 500 ft
< 800m
< 200 ft
Symboles :   Orages  Brouillard  Fortes neiges  Fortes précipitations  Vent > 20 kt
SIGMETs :   Divers  Orages  Givrage  Turbulence  Onde Orograph.  Cendres Volcan.







- Altitude de l'aérodrome : 352 ft
- Code IATA : KSD


ESOK - Karlstad

DERNIER METAR :
  • 161750Z 09003KT 9999 BKN012 10/10 Q1017

METARs EXPIRÉS :
  • 161720Z 05003KT 9999 BKN020 10/09 Q1017
  • 161650Z 06007G72KT 9999 BKN026 10/09 Q1017
  • 161620Z 02004KT 9999 FEW002 BKN011 10/09 Q1018
  • 161550Z 04004KT 9999 FEW002 BKN012 10/10 Q1018
  • 161526Z 02004KT 9999 SCT003 BKN012 10/10 Q1017

TAF TAF ESOK
Valide du 16 à 18h jusqu'au 16 à 21h UTC


161730Z 1618/1621 06005KT 9999 BKN020
PROB40 1618/1621 4000 BR BKN004
Pas de NOTAMs connus pour ce terrain.



MET'MAP, la Météo Aéronautique d'un coup d'oeil ! - Copyright ORBIFLY Décembre 2007 - Disclaimer

ORBIFLY MET'MAP TEAM :

Programmation & Développement : Alexandra Zaïnal
Conception & Développement : Baudouin d'Aumeries
Co-Programmation & Développement : Marc-Olivier Méhu
Soutien technique & logistique : Manuel Goepfert

Contact : metmap@orbifly.com




SOURCES & CREDITS :

   NOAA